This is the latest recevied weather packets stored in our database for station/object KD8OZS. If no packets are shown the sender has not sent any weather packets the latest 10 day(s).
| Time | Temp. | Humidity | Pressure | Rain* | Wind** | Luminosity | Snow |
|---|---|---|---|---|---|---|---|
| 1778198167 | 11.67° C | 51% | 1005.4 hPa | 0 mm | - | 19 W/m² | - |
| 1778197864 | 11.67° C | 48% | 1005.2 hPa | 0 mm | - | 20 W/m² | - |
| 1778197561 | 12.22° C | 50% | 1005.5 hPa | 0 mm | - | 23 W/m² | - |
| 1778197257 | 12.22° C | 48% | 1005.4 hPa | 0 mm | - | 26 W/m² | - |
| 1778196954 | 12.78° C | 45% | 1005.3 hPa | 0 mm | - | 30 W/m² | - |
| 1778196653 | 12.78° C | 46% | 1005.4 hPa | 0 mm | - | 37 W/m² | - |
| 1778196348 | 12.78° C | 46% | 1005.3 hPa | 0 mm | - | 50 W/m² | - |
| 1778196046 | 12.78° C | 44% | 1005.1 hPa | 0 mm | - | 35 W/m² | - |
| 1778195742 | 12.78° C | 43% | 1005 hPa | 0 mm | - | 35 W/m² | - |
| 1778195440 | 12.78° C | 44% | 1005.3 hPa | 0 mm | - | 44 W/m² | - |
| 1778195136 | 12.78° C | 47% | 1005.1 hPa | 0 mm | - | 44 W/m² | - |
| 1778194833 | 12.78° C | 48% | 1005.2 hPa | 0 mm | - | 48 W/m² | - |
| 1778194528 | 12.22° C | 48% | 1005.2 hPa | 0 mm | - | 39 W/m² | - |
| 1778194224 | 12.22° C | 49% | 1005.2 hPa | 0 mm | - | 42 W/m² | - |
| 1778193920 | 12.78° C | 44% | 1005.1 hPa | 0 mm | - | 47 W/m² | - |
| 1778193617 | 12.78° C | 46% | 1005.2 hPa | 0 mm | - | 45 W/m² | - |
| 1778193313 | 13.33° C | 43% | 1005.2 hPa | 0 mm | - | 73 W/m² | - |
| 1778193010 | 13.33° C | 47% | 1005.2 hPa | 0 mm | - | 55 W/m² | - |
| 1778192708 | 13.33° C | 44% | 1005.3 hPa | 0 mm | - | 96 W/m² | - |
| 1778192403 | 13.33° C | 46% | 1005.2 hPa | 0 mm | - | 79 W/m² | - |
| 1778192100 | 13.33° C | 43% | 1005.2 hPa | 0 mm | - | 101 W/m² | - |
| 1778191797 | 13.33° C | 43% | 1005.2 hPa | 0 mm | - | 95 W/m² | - |
| 1778191494 | 13.89° C | 42% | 1005.1 hPa | 0 mm | - | 96 W/m² | - |
| 1778191191 | 13.33° C | 48% | 1005.1 hPa | 0 mm | - | 91 W/m² | - |
| 1778190887 | 13.89° C | 44% | 1005 hPa | 0 mm | - | 74 W/m² | - |
* Rain latest hour (hover to see other rain measurements)
** Current wind speed in m/s (hover to see current wind gust speed)